sensor_id;sensor_type;location;lat;lon;timestamp;P1;durP1;ratioP1;P2;durP2;ratioP2
18322;SDS011;9287;49.456;11.064;2023-08-24T00:00:31;3.53;;;3.22;;
18322;SDS011;9287;49.456;11.064;2023-08-24T00:03:00;4.22;;;3.92;;
18322;SDS011;9287;49.456;11.064;2023-08-24T00:05:30;4.65;;;4.13;;
18322;SDS011;9287;49.456;11.064;2023-08-24T00:08:00;4.07;;;3.67;;
18322;SDS011;9287;49.456;11.064;2023-08-24T00:10:28;4.32;;;3.92;;
18322;SDS011;9287;49.456;11.064;2023-08-24T00:12:56;3.67;;;3.47;;
18322;SDS011;9287;49.456;11.064;2023-08-24T00:15:24;5.57;;;3.67;;
18322;SDS011;9287;49.456;11.064;2023-08-24T00:17:52;3.92;;;3.55;;
18322;SDS011;9287;49.456;11.064;2023-08-24T00:20:20;5.95;;;4.50;;
18322;SDS011;9287;49.456;11.064;2023-08-24T00:22:50;5.65;;;3.92;;
18322;SDS011;9287;49.456;11.064;2023-08-24T00:25:18;4.60;;;3.83;;
18322;SDS011;9287;49.456;11.064;2023-08-24T00:27:46;5.07;;;4.18;;
18322;SDS011;9287;49.456;11.064;2023-08-24T00:30:14;4.47;;;4.05;;
18322;SDS011;9287;49.456;11.064;2023-08-24T00:32:43;4.63;;;4.22;;
18322;SDS011;9287;49.456;11.064;2023-08-24T00:35:11;4.82;;;4.03;;
18322;SDS011;9287;49.456;11.064;2023-08-24T00:37:39;4.28;;;3.50;;
18322;SDS011;9287;49.456;11.064;2023-08-24T00:40:10;4.25;;;3.95;;
18322;SDS011;9287;49.456;11.064;2023-08-24T00:42:38;4.45;;;3.90;;
18322;SDS011;9287;49.456;11.064;2023-08-24T00:45:07;4.40;;;3.58;;
18322;SDS011;9287;49.456;11.064;2023-08-24T00:47:36;5.18;;;3.92;;
18322;SDS011;9287;49.456;11.064;2023-08-24T00:50:07;5.30;;;3.80;;
18322;SDS011;9287;49.456;11.064;2023-08-24T00:52:36;4.25;;;3.55;;
18322;SDS011;9287;49.456;11.064;2023-08-24T00:55:06;8.77;;;3.95;;
18322;SDS011;9287;49.456;11.064;2023-08-24T00:57:37;4.47;;;3.80;;
18322;SDS011;9287;49.456;11.064;2023-08-24T01:00:07;4.30;;;3.90;;
18322;SDS011;9287;49.456;11.064;2023-08-24T01:02:37;6.22;;;3.53;;
18322;SDS011;9287;49.456;11.064;2023-08-24T01:05:07;4.78;;;3.83;;
18322;SDS011;9287;49.456;11.064;2023-08-24T01:07:36;4.10;;;3.80;;
18322;SDS011;9287;49.456;11.064;2023-08-24T01:10:08;4.60;;;3.97;;
18322;SDS011;9287;49.456;11.064;2023-08-24T01:12:45;5.05;;;3.85;;
18322;SDS011;9287;49.456;11.064;2023-08-24T01:15:22;5.70;;;3.85;;
18322;SDS011;9287;49.456;11.064;2023-08-24T01:18:04;7.28;;;4.32;;
18322;SDS011;9287;49.456;11.064;2023-08-24T01:20:33;5.57;;;3.80;;
18322;SDS011;9287;49.456;11.064;2023-08-24T01:23:07;4.35;;;3.95;;
18322;SDS011;9287;49.456;11.064;2023-08-24T01:25:48;4.47;;;4.07;;
18322;SDS011;9287;49.456;11.064;2023-08-24T01:28:24;6.65;;;4.43;;
18322;SDS011;9287;49.456;11.064;2023-08-24T01:30:56;5.78;;;5.28;;
18322;SDS011;9287;49.456;11.064;2023-08-24T01:33:27;5.25;;;4.55;;
18322;SDS011;9287;49.456;11.064;2023-08-24T01:35:57;4.53;;;4.22;;
18322;SDS011;9287;49.456;11.064;2023-08-24T01:38:25;5.18;;;4.22;;
18322;SDS011;9287;49.456;11.064;2023-08-24T01:40:55;5.05;;;4.18;;
18322;SDS011;9287;49.456;11.064;2023-08-24T01:43:36;5.90;;;4.18;;
18322;SDS011;9287;49.456;11.064;2023-08-24T01:46:10;4.35;;;3.92;;
18322;SDS011;9287;49.456;11.064;2023-08-24T01:48:42;4.72;;;4.32;;
18322;SDS011;9287;49.456;11.064;2023-08-24T01:51:20;5.43;;;4.78;;
18322;SDS011;9287;49.456;11.064;2023-08-24T01:53:49;4.40;;;4.10;;
18322;SDS011;9287;49.456;11.064;2023-08-24T01:56:19;5.03;;;4.10;;
18322;SDS011;9287;49.456;11.064;2023-08-24T01:58:48;4.90;;;4.32;;
18322;SDS011;9287;49.456;11.064;2023-08-24T02:01:16;4.75;;;4.35;;
18322;SDS011;9287;49.456;11.064;2023-08-24T02:03:44;4.88;;;4.50;;
18322;SDS011;9287;49.456;11.064;2023-08-24T02:06:13;4.43;;;4.13;;
18322;SDS011;9287;49.456;11.064;2023-08-24T02:08:41;5.07;;;4.57;;
18322;SDS011;9287;49.456;11.064;2023-08-24T02:11:11;5.28;;;4.88;;
18322;SDS011;9287;49.456;11.064;2023-08-24T02:13:38;6.50;;;3.63;;
18322;SDS011;9287;49.456;11.064;2023-08-24T02:16:08;3.97;;;3.72;;
18322;SDS011;9287;49.456;11.064;2023-08-24T02:18:36;5.03;;;3.53;;
18322;SDS011;9287;49.456;11.064;2023-08-24T02:21:06;5.30;;;4.68;;
18322;SDS011;9287;49.456;11.064;2023-08-24T02:23:36;4.97;;;4.35;;
18322;SDS011;9287;49.456;11.064;2023-08-24T02:26:04;6.70;;;4.40;;
18322;SDS011;9287;49.456;11.064;2023-08-24T02:28:32;4.72;;;4.20;;
18322;SDS011;9287;49.456;11.064;2023-08-24T02:31:01;6.63;;;4.95;;
18322;SDS011;9287;49.456;11.064;2023-08-24T02:33:31;7.00;;;5.03;;
18322;SDS011;9287;49.456;11.064;2023-08-24T02:35:59;4.68;;;4.28;;
18322;SDS011;9287;49.456;11.064;2023-08-24T02:38:27;6.13;;;4.45;;
18322;SDS011;9287;49.456;11.064;2023-08-24T02:41:01;6.40;;;4.50;;
18322;SDS011;9287;49.456;11.064;2023-08-24T02:43:30;4.80;;;4.43;;
18322;SDS011;9287;49.456;11.064;2023-08-24T02:46:01;5.18;;;4.20;;
18322;SDS011;9287;49.456;11.064;2023-08-24T02:48:32;4.65;;;4.35;;
18322;SDS011;9287;49.456;11.064;2023-08-24T02:51:01;3.97;;;3.72;;
18322;SDS011;9287;49.456;11.064;2023-08-24T02:53:31;5.25;;;4.68;;
18322;SDS011;9287;49.456;11.064;2023-08-24T02:56:00;4.57;;;4.25;;
18322;SDS011;9287;49.456;11.064;2023-08-24T02:58:27;5.05;;;4.57;;
18322;SDS011;9287;49.456;11.064;2023-08-24T03:00:56;4.75;;;4.35;;
18322;SDS011;9287;49.456;11.064;2023-08-24T03:03:24;5.60;;;4.35;;
18322;SDS011;9287;49.456;11.064;2023-08-24T03:05:57;7.20;;;4.65;;
18322;SDS011;9287;49.456;11.064;2023-08-24T03:08:26;5.07;;;4.60;;
18322;SDS011;9287;49.456;11.064;2023-08-24T03:10:54;5.35;;;4.90;;
18322;SDS011;9287;49.456;11.064;2023-08-24T03:13:22;6.15;;;4.68;;
18322;SDS011;9287;49.456;11.064;2023-08-24T03:15:50;4.28;;;3.88;;
18322;SDS011;9287;49.456;11.064;2023-08-24T03:18:18;4.78;;;4.20;;
18322;SDS011;9287;49.456;11.064;2023-08-24T03:20:47;4.43;;;4.03;;
18322;SDS011;9287;49.456;11.064;2023-08-24T03:23:17;5.00;;;4.60;;
18322;SDS011;9287;49.456;11.064;2023-08-24T03:25:45;5.38;;;4.32;;
18322;SDS011;9287;49.456;11.064;2023-08-24T03:28:13;4.13;;;3.83;;
18322;SDS011;9287;49.456;11.064;2023-08-24T03:30:45;4.30;;;3.90;;
18322;SDS011;9287;49.456;11.064;2023-08-24T03:33:14;4.82;;;4.43;;
18322;SDS011;9287;49.456;11.064;2023-08-24T03:35:43;5.78;;;4.68;;
18322;SDS011;9287;49.456;11.064;2023-08-24T03:38:11;5.18;;;4.57;;
18322;SDS011;9287;49.456;11.064;2023-08-24T03:40:40;6.95;;;4.22;;
18322;SDS011;9287;49.456;11.064;2023-08-24T03:43:08;4.60;;;4.10;;
18322;SDS011;9287;49.456;11.064;2023-08-24T03:45:36;5.45;;;4.50;;
18322;SDS011;9287;49.456;11.064;2023-08-24T03:48:04;4.82;;;4.43;;
18322;SDS011;9287;49.456;11.064;2023-08-24T03:50:33;7.07;;;5.13;;
18322;SDS011;9287;49.456;11.064;2023-08-24T03:53:01;5.65;;;5.22;;
18322;SDS011;9287;49.456;11.064;2023-08-24T03:55:28;5.38;;;4.97;;
18322;SDS011;9287;49.456;11.064;2023-08-24T03:57:58;5.57;;;4.93;;
18322;SDS011;9287;49.456;11.064;2023-08-24T04:00:28;5.18;;;4.53;;
18322;SDS011;9287;49.456;11.064;2023-08-24T04:02:57;4.65;;;4.35;;
18322;SDS011;9287;49.456;11.064;2023-08-24T04:05:25;8.00;;;5.05;;
18322;SDS011;9287;49.456;11.064;2023-08-24T04:07:54;5.10;;;4.70;;
18322;SDS011;9287;49.456;11.064;2023-08-24T04:10:22;5.32;;;4.93;;
18322;SDS011;9287;49.456;11.064;2023-08-24T04:12:50;5.03;;;4.60;;
18322;SDS011;9287;49.456;11.064;2023-08-24T04:15:21;5.55;;;4.88;;
18322;SDS011;9287;49.456;11.064;2023-08-24T04:17:49;4.85;;;4.45;;
18322;SDS011;9287;49.456;11.064;2023-08-24T04:20:18;4.68;;;4.38;;
18322;SDS011;9287;49.456;11.064;2023-08-24T04:22:45;5.05;;;4.65;;
18322;SDS011;9287;49.456;11.064;2023-08-24T04:25:13;5.75;;;4.43;;
18322;SDS011;9287;49.456;11.064;2023-08-24T04:27:43;4.88;;;4.40;;
18322;SDS011;9287;49.456;11.064;2023-08-24T04:30:12;5.40;;;4.22;;
18322;SDS011;9287;49.456;11.064;2023-08-24T04:32:42;5.20;;;4.43;;
18322;SDS011;9287;49.456;11.064;2023-08-24T04:35:10;4.68;;;4.38;;
18322;SDS011;9287;49.456;11.064;2023-08-24T04:37:38;4.18;;;3.88;;
18322;SDS011;9287;49.456;11.064;2023-08-24T04:40:07;6.22;;;5.53;;
18322;SDS011;9287;49.456;11.064;2023-08-24T04:42:35;4.70;;;4.30;;
18322;SDS011;9287;49.456;11.064;2023-08-24T04:45:04;4.95;;;4.57;;
18322;SDS011;9287;49.456;11.064;2023-08-24T04:47:32;4.93;;;4.40;;
18322;SDS011;9287;49.456;11.064;2023-08-24T04:50:01;5.97;;;4.32;;
18322;SDS011;9287;49.456;11.064;2023-08-24T04:52:30;4.60;;;4.20;;
18322;SDS011;9287;49.456;11.064;2023-08-24T04:54:57;4.95;;;4.03;;
18322;SDS011;9287;49.456;11.064;2023-08-24T04:57:26;4.70;;;4.15;;
18322;SDS011;9287;49.456;11.064;2023-08-24T04:59:55;6.10;;;4.63;;
18322;SDS011;9287;49.456;11.064;2023-08-24T05:02:23;8.10;;;4.82;;
18322;SDS011;9287;49.456;11.064;2023-08-24T05:04:54;5.13;;;4.82;;
18322;SDS011;9287;49.456;11.064;2023-08-24T05:07:24;4.43;;;4.07;;
18322;SDS011;9287;49.456;11.064;2023-08-24T05:09:53;4.97;;;4.38;;
18322;SDS011;9287;49.456;11.064;2023-08-24T05:12:23;6.70;;;4.35;;
18322;SDS011;9287;49.456;11.064;2023-08-24T05:14:56;6.28;;;4.32;;
18322;SDS011;9287;49.456;11.064;2023-08-24T05:17:26;4.10;;;3.80;;
18322;SDS011;9287;49.456;11.064;2023-08-24T05:19:57;4.53;;;4.13;;
18322;SDS011;9287;49.456;11.064;2023-08-24T05:22:28;5.45;;;4.13;;
18322;SDS011;9287;49.456;11.064;2023-08-24T05:24:56;4.63;;;4.20;;
18322;SDS011;9287;49.456;11.064;2023-08-24T05:27:25;4.30;;;3.90;;
18322;SDS011;9287;49.456;11.064;2023-08-24T05:29:56;5.13;;;4.18;;
18322;SDS011;9287;49.456;11.064;2023-08-24T05:32:24;5.10;;;4.50;;
18322;SDS011;9287;49.456;11.064;2023-08-24T05:34:52;5.53;;;4.40;;
18322;SDS011;9287;49.456;11.064;2023-08-24T05:37:25;6.72;;;4.20;;
18322;SDS011;9287;49.456;11.064;2023-08-24T05:39:54;5.30;;;4.65;;
18322;SDS011;9287;49.456;11.064;2023-08-24T05:42:22;6.25;;;4.88;;
18322;SDS011;9287;49.456;11.064;2023-08-24T05:44:51;9.23;;;4.55;;
18322;SDS011;9287;49.456;11.064;2023-08-24T05:47:19;5.28;;;4.30;;
18322;SDS011;9287;49.456;11.064;2023-08-24T05:49:47;6.03;;;4.20;;
18322;SDS011;9287;49.456;11.064;2023-08-24T05:52:15;9.02;;;4.18;;
18322;SDS011;9287;49.456;11.064;2023-08-24T05:54:43;3.78;;;3.47;;
18322;SDS011;9287;49.456;11.064;2023-08-24T05:57:12;3.70;;;3.40;;
18322;SDS011;9287;49.456;11.064;2023-08-24T05:59:40;3.80;;;3.17;;
18322;SDS011;9287;49.456;11.064;2023-08-24T06:02:08;4.43;;;3.13;;
18322;SDS011;9287;49.456;11.064;2023-08-24T06:04:36;17.05;;;4.60;;
18322;SDS011;9287;49.456;11.064;2023-08-24T06:07:04;5.40;;;3.17;;
18322;SDS011;9287;49.456;11.064;2023-08-24T06:09:32;3.30;;;3.00;;
18322;SDS011;9287;49.456;11.064;2023-08-24T06:12:01;3.72;;;2.90;;
18322;SDS011;9287;49.456;11.064;2023-08-24T06:14:30;3.20;;;2.55;;
18322;SDS011;9287;49.456;11.064;2023-08-24T06:16:59;7.15;;;2.38;;
18322;SDS011;9287;49.456;11.064;2023-08-24T06:19:27;3.72;;;2.75;;
18322;SDS011;9287;49.456;11.064;2023-08-24T06:21:56;3.35;;;2.88;;
18322;SDS011;9287;49.456;11.064;2023-08-24T06:24:25;5.65;;;3.80;;
18322;SDS011;9287;49.456;11.064;2023-08-24T06:26:54;6.85;;;4.20;;
18322;SDS011;9287;49.456;11.064;2023-08-24T06:29:25;3.78;;;3.47;;
18322;SDS011;9287;49.456;11.064;2023-08-24T06:31:55;9.27;;;4.13;;
18322;SDS011;9287;49.456;11.064;2023-08-24T06:34:24;5.07;;;3.67;;
18322;SDS011;9287;49.456;11.064;2023-08-24T06:36:52;4.45;;;3.97;;
18322;SDS011;9287;49.456;11.064;2023-08-24T06:39:23;7.63;;;4.03;;
18322;SDS011;9287;49.456;11.064;2023-08-24T06:41:51;5.88;;;4.10;;
18322;SDS011;9287;49.456;11.064;2023-08-24T06:44:19;4.47;;;4.07;;
18322;SDS011;9287;49.456;11.064;2023-08-24T06:46:48;8.77;;;3.95;;
18322;SDS011;9287;49.456;11.064;2023-08-24T06:49:17;8.82;;;4.70;;
18322;SDS011;9287;49.456;11.064;2023-08-24T06:51:46;7.30;;;4.93;;
18322;SDS011;9287;49.456;11.064;2023-08-24T06:54:14;6.13;;;4.57;;
18322;SDS011;9287;49.456;11.064;2023-08-24T06:56:42;4.85;;;4.30;;
18322;SDS011;9287;49.456;11.064;2023-08-24T06:59:11;5.82;;;3.88;;
18322;SDS011;9287;49.456;11.064;2023-08-24T07:01:39;5.63;;;4.32;;
18322;SDS011;9287;49.456;11.064;2023-08-24T07:04:07;8.10;;;4.22;;
18322;SDS011;9287;49.456;11.064;2023-08-24T07:06:36;4.47;;;3.65;;
18322;SDS011;9287;49.456;11.064;2023-08-24T07:09:04;6.63;;;4.50;;
18322;SDS011;9287;49.456;11.064;2023-08-24T07:11:34;6.68;;;4.70;;
18322;SDS011;9287;49.456;11.064;2023-08-24T07:14:02;7.45;;;4.88;;
18322;SDS011;9287;49.456;11.064;2023-08-24T07:16:30;4.47;;;4.10;;
18322;SDS011;9287;49.456;11.064;2023-08-24T07:18:58;6.75;;;4.65;;
18322;SDS011;9287;49.456;11.064;2023-08-24T07:21:26;5.65;;;4.10;;
18322;SDS011;9287;49.456;11.064;2023-08-24T07:23:56;4.13;;;3.83;;
18322;SDS011;9287;49.456;11.064;2023-08-24T07:26:24;4.65;;;4.22;;
18322;SDS011;9287;49.456;11.064;2023-08-24T07:28:53;7.20;;;4.68;;
18322;SDS011;9287;49.456;11.064;2023-08-24T07:31:21;9.65;;;4.50;;
18322;SDS011;9287;49.456;11.064;2023-08-24T07:33:49;4.10;;;3.72;;
18322;SDS011;9287;49.456;11.064;2023-08-24T07:36:17;5.82;;;3.97;;
18322;SDS011;9287;49.456;11.064;2023-08-24T07:38:46;7.72;;;3.55;;
18322;SDS011;9287;49.456;11.064;2023-08-24T07:41:15;5.70;;;4.03;;
18322;SDS011;9287;49.456;11.064;2023-08-24T07:43:44;6.93;;;4.20;;
18322;SDS011;9287;49.456;11.064;2023-08-24T07:46:12;7.50;;;4.03;;
18322;SDS011;9287;49.456;11.064;2023-08-24T07:48:40;3.53;;;3.05;;
18322;SDS011;9287;49.456;11.064;2023-08-24T07:51:08;6.30;;;3.67;;
18322;SDS011;9287;49.456;11.064;2023-08-24T07:53:36;4.60;;;3.35;;
18322;SDS011;9287;49.456;11.064;2023-08-24T07:56:04;7.57;;;3.85;;
18322;SDS011;9287;49.456;11.064;2023-08-24T07:58:34;3.53;;;3.22;;
18322;SDS011;9287;49.456;11.064;2023-08-24T08:01:02;3.83;;;3.30;;
18322;SDS011;9287;49.456;11.064;2023-08-24T08:03:31;6.75;;;3.15;;
18322;SDS011;9287;49.456;11.064;2023-08-24T08:06:00;3.85;;;2.75;;
18322;SDS011;9287;49.456;11.064;2023-08-24T08:08:28;4.15;;;2.20;;
18322;SDS011;9287;49.456;11.064;2023-08-24T08:10:59;2.75;;;2.15;;
18322;SDS011;9287;49.456;11.064;2023-08-24T08:13:27;5.07;;;2.30;;
18322;SDS011;9287;49.456;11.064;2023-08-24T08:16:02;3.08;;;1.85;;
18322;SDS011;9287;49.456;11.064;2023-08-24T08:18:32;3.00;;;1.80;;
18322;SDS011;9287;49.456;11.064;2023-08-24T08:21:01;2.83;;;1.48;;
18322;SDS011;9287;49.456;11.064;2023-08-24T08:23:30;5.97;;;1.65;;
18322;SDS011;9287;49.456;11.064;2023-08-24T08:25:58;2.67;;;1.42;;
18322;SDS011;9287;49.456;11.064;2023-08-24T08:28:25;2.55;;;1.80;;
18322;SDS011;9287;49.456;11.064;2023-08-24T08:30:53;3.33;;;1.60;;
18322;SDS011;9287;49.456;11.064;2023-08-24T08:33:23;1.85;;;1.60;;
18322;SDS011;9287;49.456;11.064;2023-08-24T08:35:50;2.90;;;1.73;;
18322;SDS011;9287;49.456;11.064;2023-08-24T08:38:19;2.03;;;1.48;;
18322;SDS011;9287;49.456;11.064;2023-08-24T08:40:48;2.80;;;1.63;;
18322;SDS011;9287;49.456;11.064;2023-08-24T08:43:17;4.40;;;1.45;;
18322;SDS011;9287;49.456;11.064;2023-08-24T08:45:45;3.58;;;1.58;;
18322;SDS011;9287;49.456;11.064;2023-08-24T08:48:13;5.22;;;1.63;;
18322;SDS011;9287;49.456;11.064;2023-08-24T08:50:42;2.00;;;1.40;;
18322;SDS011;9287;49.456;11.064;2023-08-24T08:53:10;2.42;;;1.02;;
18322;SDS011;9287;49.456;11.064;2023-08-24T08:55:38;1.75;;;1.17;;
18322;SDS011;9287;49.456;11.064;2023-08-24T08:58:06;4.05;;;1.30;;
18322;SDS011;9287;49.456;11.064;2023-08-24T09:00:35;1.70;;;1.48;;
18322;SDS011;9287;49.456;11.064;2023-08-24T09:03:04;2.20;;;2.00;;
18322;SDS011;9287;49.456;11.064;2023-08-24T09:05:32;3.67;;;1.05;;
18322;SDS011;9287;49.456;11.064;2023-08-24T09:08:02;2.13;;;0.90;;
18322;SDS011;9287;49.456;11.064;2023-08-24T09:10:31;1.70;;;1.02;;
18322;SDS011;9287;49.456;11.064;2023-08-24T09:12:59;5.32;;;1.20;;
18322;SDS011;9287;49.456;11.064;2023-08-24T09:15:27;2.10;;;1.10;;
18322;SDS011;9287;49.456;11.064;2023-08-24T09:17:58;4.28;;;1.10;;
18322;SDS011;9287;49.456;11.064;2023-08-24T09:20:27;1.10;;;0.95;;
18322;SDS011;9287;49.456;11.064;2023-08-24T09:22:55;4.47;;;1.30;;
18322;SDS011;9287;49.456;11.064;2023-08-24T09:25:25;4.22;;;1.33;;
18322;SDS011;9287;49.456;11.064;2023-08-24T09:27:57;3.33;;;1.00;;
18322;SDS011;9287;49.456;11.064;2023-08-24T09:30:28;3.67;;;1.33;;
18322;SDS011;9287;49.456;11.064;2023-08-24T09:33:00;1.50;;;1.20;;
18322;SDS011;9287;49.456;11.064;2023-08-24T09:35:35;3.33;;;1.30;;
18322;SDS011;9287;49.456;11.064;2023-08-24T09:38:16;2.67;;;1.30;;
18322;SDS011;9287;49.456;11.064;2023-08-24T09:40:48;3.85;;;1.92;;
18322;SDS011;9287;49.456;11.064;2023-08-24T09:43:18;1.60;;;1.15;;
18322;SDS011;9287;49.456;11.064;2023-08-24T09:45:49;2.25;;;1.40;;
18322;SDS011;9287;49.456;11.064;2023-08-24T09:48:18;2.10;;;1.15;;
18322;SDS011;9287;49.456;11.064;2023-08-24T09:50:48;3.08;;;1.15;;
18322;SDS011;9287;49.456;11.064;2023-08-24T09:53:17;2.95;;;1.27;;
18322;SDS011;9287;49.456;11.064;2023-08-24T09:55:51;2.78;;;1.13;;
18322;SDS011;9287;49.456;11.064;2023-08-24T09:58:22;3.20;;;1.00;;
18322;SDS011;9287;49.456;11.064;2023-08-24T10:00:51;1.65;;;1.20;;
18322;SDS011;9287;49.456;11.064;2023-08-24T10:03:19;1.42;;;1.20;;
18322;SDS011;9287;49.456;11.064;2023-08-24T10:05:50;1.52;;;0.90;;
18322;SDS011;9287;49.456;11.064;2023-08-24T10:08:26;3.78;;;1.20;;
18322;SDS011;9287;49.456;11.064;2023-08-24T10:10:57;1.20;;;1.10;;
18322;SDS011;9287;49.456;11.064;2023-08-24T10:13:41;2.35;;;1.02;;
18322;SDS011;9287;49.456;11.064;2023-08-24T10:16:14;3.95;;;1.30;;
18322;SDS011;9287;49.456;11.064;2023-08-24T10:18:45;1.33;;;1.00;;
18322;SDS011;9287;49.456;11.064;2023-08-24T10:21:14;2.65;;;1.35;;
18322;SDS011;9287;49.456;11.064;2023-08-24T10:23:44;4.65;;;1.10;;
18322;SDS011;9287;49.456;11.064;2023-08-24T10:26:14;2.50;;;1.15;;
18322;SDS011;9287;49.456;11.064;2023-08-24T10:28:45;1.85;;;1.40;;
18322;SDS011;9287;49.456;11.064;2023-08-24T10:31:14;1.35;;;1.15;;
18322;SDS011;9287;49.456;11.064;2023-08-24T10:33:42;3.05;;;1.20;;
18322;SDS011;9287;49.456;11.064;2023-08-24T10:36:12;3.28;;;1.30;;
18322;SDS011;9287;49.456;11.064;2023-08-24T10:38:41;3.33;;;1.52;;
18322;SDS011;9287;49.456;11.064;2023-08-24T10:41:11;1.30;;;1.20;;
18322;SDS011;9287;49.456;11.064;2023-08-24T10:43:48;4.63;;;1.27;;
18322;SDS011;9287;49.456;11.064;2023-08-24T10:46:16;2.20;;;1.45;;
18322;SDS011;9287;49.456;11.064;2023-08-24T10:48:57;5.82;;;2.38;;
18322;SDS011;9287;49.456;11.064;2023-08-24T10:51:26;2.63;;;1.20;;
18322;SDS011;9287;49.456;11.064;2023-08-24T10:53:56;1.50;;;1.40;;
18322;SDS011;9287;49.456;11.064;2023-08-24T10:56:29;2.20;;;1.70;;
18322;SDS011;9287;49.456;11.064;2023-08-24T10:59:13;2.15;;;1.27;;
18322;SDS011;9287;49.456;11.064;2023-08-24T11:01:42;2.20;;;1.65;;
18322;SDS011;9287;49.456;11.064;2023-08-24T11:04:11;2.28;;;1.15;;
18322;SDS011;9287;49.456;11.064;2023-08-24T11:06:52;2.53;;;1.10;;
18322;SDS011;9287;49.456;11.064;2023-08-24T11:09:21;3.25;;;1.60;;
18322;SDS011;9287;49.456;11.064;2023-08-24T11:11:56;1.65;;;1.55;;
18322;SDS011;9287;49.456;11.064;2023-08-24T11:14:27;3.92;;;1.50;;
18322;SDS011;9287;49.456;11.064;2023-08-24T11:16:57;3.42;;;1.20;;
18322;SDS011;9287;49.456;11.064;2023-08-24T11:19:26;1.58;;;1.48;;
18322;SDS011;9287;49.456;11.064;2023-08-24T11:21:56;3.58;;;1.30;;
18322;SDS011;9287;49.456;11.064;2023-08-24T11:24:25;3.20;;;1.30;;
18322;SDS011;9287;49.456;11.064;2023-08-24T11:26:54;4.28;;;1.92;;
18322;SDS011;9287;49.456;11.064;2023-08-24T11:29:28;1.55;;;1.35;;
18322;SDS011;9287;49.456;11.064;2023-08-24T11:31:57;3.50;;;1.63;;
18322;SDS011;9287;49.456;11.064;2023-08-24T11:34:25;1.98;;;1.40;;
18322;SDS011;9287;49.456;11.064;2023-08-24T11:36:53;3.70;;;1.60;;
18322;SDS011;9287;49.456;11.064;2023-08-24T11:39:22;4.03;;;1.38;;
18322;SDS011;9287;49.456;11.064;2023-08-24T11:41:59;2.65;;;1.30;;
18322;SDS011;9287;49.456;11.064;2023-08-24T11:44:29;4.07;;;1.92;;
18322;SDS011;9287;49.456;11.064;2023-08-24T11:46:58;2.55;;;1.30;;
18322;SDS011;9287;49.456;11.064;2023-08-24T11:49:26;3.28;;;1.30;;
18322;SDS011;9287;49.456;11.064;2023-08-24T11:51:54;2.65;;;1.35;;
18322;SDS011;9287;49.456;11.064;2023-08-24T11:54:23;3.83;;;1.30;;
18322;SDS011;9287;49.456;11.064;2023-08-24T11:56:51;3.95;;;1.58;;
18322;SDS011;9287;49.456;11.064;2023-08-24T11:59:19;2.22;;;1.30;;
18322;SDS011;9287;49.456;11.064;2023-08-24T12:01:49;2.28;;;1.38;;
18322;SDS011;9287;49.456;11.064;2023-08-24T12:04:19;6.25;;;1.58;;
18322;SDS011;9287;49.456;11.064;2023-08-24T12:06:47;5.32;;;1.50;;
18322;SDS011;9287;49.456;11.064;2023-08-24T12:09:14;3.80;;;1.92;;
18322;SDS011;9287;49.456;11.064;2023-08-24T12:11:43;2.50;;;1.20;;
18322;SDS011;9287;49.456;11.064;2023-08-24T12:14:16;3.28;;;1.52;;
18322;SDS011;9287;49.456;11.064;2023-08-24T12:16:44;1.83;;;1.60;;
18322;SDS011;9287;49.456;11.064;2023-08-24T12:19:14;2.15;;;1.35;;
18322;SDS011;9287;49.456;11.064;2023-08-24T12:21:43;2.92;;;1.50;;
18322;SDS011;9287;49.456;11.064;2023-08-24T12:24:13;7.43;;;1.63;;
18322;SDS011;9287;49.456;11.064;2023-08-24T12:26:41;5.32;;;1.92;;
18322;SDS011;9287;49.456;11.064;2023-08-24T12:29:09;2.50;;;1.38;;
18322;SDS011;9287;49.456;11.064;2023-08-24T12:31:37;3.90;;;1.35;;
18322;SDS011;9287;49.456;11.064;2023-08-24T12:34:14;4.35;;;1.42;;
18322;SDS011;9287;49.456;11.064;2023-08-24T12:36:43;2.58;;;1.50;;
18322;SDS011;9287;49.456;11.064;2023-08-24T12:39:11;2.55;;;1.45;;
18322;SDS011;9287;49.456;11.064;2023-08-24T12:41:41;3.25;;;1.17;;
18322;SDS011;9287;49.456;11.064;2023-08-24T12:44:09;3.50;;;1.40;;
18322;SDS011;9287;49.456;11.064;2023-08-24T12:46:40;1.40;;;1.17;;
18322;SDS011;9287;49.456;11.064;2023-08-24T12:49:08;3.72;;;1.45;;
18322;SDS011;9287;49.456;11.064;2023-08-24T12:51:38;6.25;;;1.35;;
18322;SDS011;9287;49.456;11.064;2023-08-24T12:54:07;5.90;;;1.30;;
18322;SDS011;9287;49.456;11.064;2023-08-24T12:56:38;2.88;;;1.30;;
18322;SDS011;9287;49.456;11.064;2023-08-24T12:59:06;2.33;;;1.60;;
18322;SDS011;9287;49.456;11.064;2023-08-24T13:01:34;5.35;;;1.55;;
18322;SDS011;9287;49.456;11.064;2023-08-24T13:04:03;2.05;;;1.38;;
18322;SDS011;9287;49.456;11.064;2023-08-24T13:06:31;2.80;;;1.33;;
18322;SDS011;9287;49.456;11.064;2023-08-24T13:09:01;3.38;;;1.70;;
18322;SDS011;9287;49.456;11.064;2023-08-24T13:11:29;3.67;;;1.73;;
18322;SDS011;9287;49.456;11.064;2023-08-24T13:13:57;3.22;;;1.63;;
18322;SDS011;9287;49.456;11.064;2023-08-24T13:16:25;4.65;;;1.38;;
18322;SDS011;9287;49.456;11.064;2023-08-24T13:18:54;1.48;;;1.20;;
18322;SDS011;9287;49.456;11.064;2023-08-24T13:21:22;3.22;;;1.60;;
18322;SDS011;9287;49.456;11.064;2023-08-24T13:23:52;3.33;;;1.52;;
18322;SDS011;9287;49.456;11.064;2023-08-24T13:26:21;4.05;;;1.50;;
18322;SDS011;9287;49.456;11.064;2023-08-24T13:28:50;1.35;;;1.25;;
18322;SDS011;9287;49.456;11.064;2023-08-24T13:31:18;4.50;;;1.38;;
18322;SDS011;9287;49.456;11.064;2023-08-24T13:33:46;2.90;;;1.35;;
18322;SDS011;9287;49.456;11.064;2023-08-24T13:36:14;3.72;;;1.60;;
18322;SDS011;9287;49.456;11.064;2023-08-24T13:38:43;3.78;;;2.00;;
18322;SDS011;9287;49.456;11.064;2023-08-24T13:41:11;1.50;;;1.40;;
18322;SDS011;9287;49.456;11.064;2023-08-24T13:43:40;3.03;;;1.60;;
18322;SDS011;9287;49.456;11.064;2023-08-24T13:46:08;4.40;;;1.70;;
18322;SDS011;9287;49.456;11.064;2023-08-24T13:48:36;3.83;;;1.83;;
18322;SDS011;9287;49.456;11.064;2023-08-24T13:51:06;3.28;;;1.60;;
18322;SDS011;9287;49.456;11.064;2023-08-24T13:53:35;3.10;;;1.50;;
18322;SDS011;9287;49.456;11.064;2023-08-24T13:56:04;2.60;;;1.58;;
18322;SDS011;9287;49.456;11.064;2023-08-24T13:58:35;2.15;;;1.40;;
18322;SDS011;9287;49.456;11.064;2023-08-24T14:01:04;2.95;;;1.70;;
18322;SDS011;9287;49.456;11.064;2023-08-24T14:03:32;3.63;;;1.98;;
18322;SDS011;9287;49.456;11.064;2023-08-24T14:06:01;3.78;;;1.90;;
18322;SDS011;9287;49.456;11.064;2023-08-24T14:08:29;2.05;;;1.52;;
18322;SDS011;9287;49.456;11.064;2023-08-24T14:10:56;4.30;;;1.80;;
18322;SDS011;9287;49.456;11.064;2023-08-24T14:13:24;5.97;;;1.85;;
18322;SDS011;9287;49.456;11.064;2023-08-24T14:15:52;4.03;;;2.70;;
18322;SDS011;9287;49.456;11.064;2023-08-24T14:18:23;2.75;;;1.58;;
18322;SDS011;9287;49.456;11.064;2023-08-24T14:20:52;5.13;;;1.70;;
18322;SDS011;9287;49.456;11.064;2023-08-24T14:23:20;2.67;;;1.48;;
18322;SDS011;9287;49.456;11.064;2023-08-24T14:25:48;7.00;;;1.92;;
18322;SDS011;9287;49.456;11.064;2023-08-24T14:28:20;3.80;;;1.70;;
18322;SDS011;9287;49.456;11.064;2023-08-24T14:30:49;4.20;;;2.20;;
18322;SDS011;9287;49.456;11.064;2023-08-24T14:33:17;5.97;;;1.60;;
18322;SDS011;9287;49.456;11.064;2023-08-24T14:35:51;5.38;;;1.95;;
18322;SDS011;9287;49.456;11.064;2023-08-24T14:38:19;3.88;;;1.60;;
18322;SDS011;9287;49.456;11.064;2023-08-24T14:40:46;5.45;;;1.80;;
18322;SDS011;9287;49.456;11.064;2023-08-24T14:43:14;2.45;;;1.60;;
18322;SDS011;9287;49.456;11.064;2023-08-24T14:45:42;4.00;;;2.08;;
18322;SDS011;9287;49.456;11.064;2023-08-24T14:48:10;3.88;;;2.00;;
18322;SDS011;9287;49.456;11.064;2023-08-24T14:50:38;2.05;;;1.73;;
18322;SDS011;9287;49.456;11.064;2023-08-24T14:53:07;3.35;;;2.00;;
18322;SDS011;9287;49.456;11.064;2023-08-24T14:55:37;4.93;;;2.03;;
18322;SDS011;9287;49.456;11.064;2023-08-24T14:58:05;6.00;;;1.73;;
18322;SDS011;9287;49.456;11.064;2023-08-24T15:00:33;6.35;;;1.90;;